createdAt,value
2018-10-19T00:00:53.907Z,0.00
2018-10-19T00:01:53.827Z,0.00
2018-10-19T00:02:53.811Z,0.00
2018-10-19T00:03:53.764Z,0.00
2018-10-19T00:04:53.755Z,0.00
2018-10-19T00:05:53.711Z,0.00
2018-10-19T00:06:53.686Z,0.00
2018-10-19T00:07:53.649Z,0.00
2018-10-19T00:08:53.625Z,0.00
2018-10-19T00:09:53.591Z,0.00
2018-10-19T00:10:53.608Z,0.00
2018-10-19T00:11:53.530Z,0.00
2018-10-19T00:12:53.556Z,0.00
2018-10-19T00:13:53.476Z,0.00
2018-10-19T00:14:53.453Z,0.00
2018-10-19T00:15:53.417Z,0.00
2018-10-19T00:16:53.409Z,0.00
2018-10-19T00:17:53.357Z,0.00
2018-10-19T00:18:53.329Z,0.00
2018-10-19T00:19:53.302Z,0.00
2018-10-19T00:20:53.272Z,0.00
2018-10-19T00:21:53.243Z,0.00
2018-10-19T00:22:53.263Z,0.00
2018-10-19T00:23:53.185Z,0.00
2018-10-19T00:24:53.167Z,0.00
2018-10-19T00:25:53.127Z,0.00
2018-10-19T00:26:53.098Z,0.00
2018-10-19T00:27:53.073Z,0.00
2018-10-19T00:28:53.091Z,0.00
2018-10-19T00:29:53.014Z,0.00
2018-10-19T00:30:52.978Z,0.00
2018-10-19T00:31:52.952Z,0.00
2018-10-19T00:32:52.919Z,0.00
2018-10-19T00:33:52.896Z,0.00
2018-10-19T00:34:52.867Z,0.00
2018-10-19T00:35:53.036Z,0.00
2018-10-19T00:36:52.885Z,0.00
2018-10-19T00:37:52.778Z,0.00
2018-10-19T00:38:52.752Z,0.00
2018-10-19T00:39:52.917Z,0.00
2018-10-19T00:40:52.893Z,0.00
2018-10-19T00:41:52.660Z,0.00
2018-10-19T00:42:52.628Z,0.00
2018-10-19T00:43:52.598Z,0.00
2018-10-19T00:44:52.573Z,0.00
2018-10-19T00:45:52.542Z,0.00
2018-10-19T00:46:52.526Z,0.00
2018-10-19T00:47:52.485Z,0.00
2018-10-19T00:48:52.656Z,0.00
2018-10-19T00:49:52.625Z,0.00
2018-10-19T00:50:52.407Z,0.00
2018-10-19T00:51:52.364Z,0.00
2018-10-19T00:52:52.382Z,0.00
2018-10-19T00:53:52.311Z,0.00
2018-10-19T00:54:52.480Z,0.00
2018-10-19T00:55:52.269Z,0.00
2018-10-19T00:56:52.219Z,0.00
2018-10-19T00:57:52.191Z,0.00
2018-10-19T00:58:52.394Z,0.00
2018-10-19T00:59:52.131Z,0.00
2018-10-19T01:00:52.102Z,0.00
2018-10-19T01:01:52.677Z,0.00
2018-10-19T01:02:52.099Z,0.00
2018-10-19T01:03:52.011Z,0.00
2018-10-19T01:04:52.002Z,0.00
2018-10-19T01:05:51.955Z,0.00
2018-10-19T01:06:51.925Z,0.00
2018-10-19T01:07:51.895Z,0.00
2018-10-19T01:08:51.870Z,0.00
2018-10-19T01:09:51.835Z,0.00
2018-10-19T01:10:51.828Z,0.00
2018-10-19T01:11:51.777Z,0.00
2018-10-19T01:12:51.746Z,0.00
2018-10-19T01:13:51.717Z,0.00
2018-10-19T01:14:51.688Z,0.00
2018-10-19T01:15:51.656Z,0.00
2018-10-19T01:16:51.629Z,0.00
2018-10-19T01:17:51.600Z,0.00
2018-10-19T01:18:51.573Z,0.00
2018-10-19T01:19:51.543Z,0.00
2018-10-19T01:20:51.512Z,0.00
2018-10-19T01:21:51.482Z,0.00
2018-10-19T01:22:51.451Z,0.00
2018-10-19T01:23:51.422Z,0.00
2018-10-19T01:24:51.393Z,0.00
2018-10-19T01:25:51.365Z,0.00
2018-10-19T01:26:51.337Z,0.00
2018-10-19T01:27:51.316Z,0.00
2018-10-19T01:28:51.277Z,0.00
2018-10-19T01:29:51.249Z,0.00
2018-10-19T01:30:51.218Z,0.00
2018-10-19T01:31:51.189Z,0.00
2018-10-19T01:32:51.160Z,0.00
2018-10-19T01:33:51.134Z,0.00
2018-10-19T01:34:51.099Z,0.00
2018-10-19T01:35:51.073Z,0.00
2018-10-19T01:36:51.040Z,0.00
2018-10-19T01:37:51.013Z,0.00
2018-10-19T01:38:50.986Z,0.00
2018-10-19T01:39:50.953Z,0.00
2018-10-19T01:40:50.927Z,0.00
2018-10-19T01:41:50.896Z,0.00
2018-10-19T01:42:50.863Z,0.00
2018-10-19T01:43:50.834Z,0.00
2018-10-19T01:44:50.807Z,0.00
2018-10-19T01:45:50.776Z,0.00
2018-10-19T01:46:50.745Z,0.00
2018-10-19T01:47:50.716Z,0.00
2018-10-19T01:48:50.687Z,0.00
2018-10-19T01:49:50.660Z,0.00
2018-10-19T01:50:50.839Z,0.00
2018-10-19T01:51:50.804Z,0.00
2018-10-19T01:52:50.569Z,0.00
2018-10-19T01:53:50.538Z,0.00
2018-10-19T01:54:50.515Z,0.00
2018-10-19T01:55:50.478Z,0.00
2018-10-19T01:56:50.449Z,0.00
2018-10-19T01:57:50.422Z,0.00
2018-10-19T01:58:50.393Z,0.00
2018-10-19T01:59:50.362Z,0.00
2018-10-19T02:00:50.333Z,0.00
2018-10-19T02:01:50.303Z,0.00
2018-10-19T02:02:50.273Z,0.00
2018-10-19T02:03:50.244Z,0.00
2018-10-19T02:04:50.216Z,0.00
2018-10-19T02:05:50.183Z,0.00
2018-10-19T02:06:50.153Z,0.00
2018-10-19T02:07:50.124Z,0.00
2018-10-19T02:08:50.143Z,0.00
2018-10-19T02:09:50.067Z,0.00
2018-10-19T02:10:50.039Z,0.00
2018-10-19T02:11:50.005Z,0.00
2018-10-19T02:12:49.982Z,0.00
2018-10-19T02:13:49.947Z,0.00
2018-10-19T02:14:49.917Z,0.00
2018-10-19T02:15:49.886Z,0.00
2018-10-19T02:16:49.859Z,0.00
2018-10-19T02:17:49.835Z,0.00
2018-10-19T02:18:49.801Z,0.00
2018-10-19T02:19:50.872Z,0.00
2018-10-19T02:20:49.740Z,0.00
2018-10-19T02:21:49.711Z,0.00
2018-10-19T02:22:49.679Z,0.00
2018-10-19T02:23:49.648Z,0.00
2018-10-19T02:24:49.619Z,0.00
2018-10-19T02:25:49.592Z,0.00
2018-10-19T02:26:49.563Z,0.00
2018-10-19T02:27:49.532Z,0.00
2018-10-19T02:28:49.508Z,0.00
2018-10-19T02:29:49.472Z,0.00
2018-10-19T02:30:49.443Z,0.00
2018-10-19T02:31:49.410Z,0.00
2018-10-19T02:32:49.386Z,0.00
2018-10-19T02:33:49.367Z,0.00
2018-10-19T02:34:49.329Z,0.00
2018-10-19T02:35:49.293Z,0.00
2018-10-19T02:36:49.266Z,0.00
2018-10-19T02:37:49.489Z,0.00
2018-10-19T02:38:49.206Z,0.00
2018-10-19T02:39:49.177Z,0.00
2018-10-19T02:40:49.149Z,0.00
2018-10-19T02:41:49.115Z,0.00
2018-10-19T02:42:49.089Z,0.00
2018-10-19T02:43:49.055Z,0.00
2018-10-19T02:44:49.027Z,0.00
2018-10-19T02:45:48.998Z,0.00
2018-10-19T02:46:49.171Z,0.00
2018-10-19T02:47:48.965Z,0.00
2018-10-19T02:48:48.909Z,0.00
2018-10-19T02:49:49.081Z,0.00
2018-10-19T02:50:48.852Z,0.00
2018-10-19T02:51:48.820Z,0.00
2018-10-19T02:52:48.790Z,0.00
2018-10-19T02:53:48.960Z,0.00
2018-10-19T02:54:48.728Z,0.00
2018-10-19T02:55:48.903Z,0.00
2018-10-19T02:56:48.669Z,0.00
2018-10-19T02:57:48.640Z,0.00
2018-10-19T02:58:48.824Z,0.00
2018-10-19T02:59:48.581Z,0.00
2018-10-19T03:00:48.552Z,0.00
2018-10-19T03:01:48.523Z,0.00
2018-10-19T03:02:48.490Z,0.00
2018-10-19T03:03:48.460Z,0.00
2018-10-19T03:04:48.430Z,0.00
2018-10-19T03:05:48.400Z,0.00
2018-10-19T03:06:48.573Z,0.00
2018-10-19T03:07:48.345Z,0.00
2018-10-19T03:08:48.310Z,0.00
2018-10-19T03:09:48.290Z,0.00
2018-10-19T03:10:48.255Z,0.00
2018-10-19T03:11:48.225Z,0.00
2018-10-19T03:12:48.244Z,0.00
2018-10-19T03:13:48.162Z,0.00
2018-10-19T03:14:48.135Z,0.00
2018-10-19T03:15:48.101Z,0.00
2018-10-19T03:16:48.072Z,0.00
2018-10-19T03:17:48.045Z,0.00
2018-10-19T03:18:48.015Z,0.00
2018-10-19T03:19:47.983Z,0.00
2018-10-19T03:20:47.954Z,0.00
2018-10-19T03:21:47.924Z,0.00
2018-10-19T03:22:47.895Z,0.00
2018-10-19T03:23:47.863Z,0.00
2018-10-19T03:24:47.834Z,0.00
2018-10-19T03:25:47.808Z,0.00
2018-10-19T03:26:47.772Z,0.00
2018-10-19T03:27:47.742Z,0.00
2018-10-19T03:28:47.726Z,0.00
2018-10-19T03:29:47.684Z,0.00
2018-10-19T03:30:47.675Z,0.00
2018-10-19T03:31:47.624Z,0.00
2018-10-19T03:32:47.594Z,0.00
2018-10-19T03:33:47.562Z,0.00
2018-10-19T03:34:47.532Z,0.00
2018-10-19T03:35:47.503Z,0.00
2018-10-19T03:36:47.474Z,0.00
2018-10-19T03:37:47.645Z,0.00
2018-10-19T03:38:47.616Z,0.00
2018-10-19T03:39:47.398Z,0.00
2018-10-19T03:40:47.354Z,0.00
2018-10-19T03:41:47.323Z,0.00
2018-10-19T03:42:47.294Z,0.00
2018-10-19T03:43:47.263Z,0.00
2018-10-19T03:44:47.232Z,0.00
2018-10-19T03:45:47.403Z,0.00
2018-10-19T03:46:47.173Z,0.00
2018-10-19T03:47:47.141Z,0.00
2018-10-19T03:48:47.362Z,0.00
2018-10-19T03:49:47.082Z,0.00
2018-10-19T03:50:47.066Z,0.00
2018-10-19T03:51:47.022Z,0.00
2018-10-19T03:52:46.996Z,0.00
2018-10-19T03:53:46.963Z,0.00
2018-10-19T03:54:46.933Z,0.00
2018-10-19T03:55:47.104Z,0.00
2018-10-19T03:56:46.877Z,0.00
2018-10-19T03:57:46.847Z,0.00
2018-10-19T03:58:46.844Z,0.00
2018-10-19T03:59:46.779Z,0.00
2018-10-19T04:00:46.752Z,0.00
2018-10-19T04:01:46.722Z,0.00
2018-10-19T04:02:46.695Z,0.00
2018-10-19T04:03:46.705Z,0.00
2018-10-19T04:04:46.634Z,0.00
2018-10-19T04:05:46.600Z,0.00
2018-10-19T04:06:46.571Z,0.00
2018-10-19T04:07:46.540Z,0.00
2018-10-19T04:08:46.512Z,0.00
2018-10-19T04:09:46.481Z,0.00
2018-10-19T04:10:46.454Z,0.00
2018-10-19T04:11:46.420Z,0.00
2018-10-19T04:12:46.394Z,0.00
2018-10-19T04:13:46.365Z,0.00
2018-10-19T04:14:46.333Z,0.00
2018-10-19T04:15:46.505Z,0.00
2018-10-19T04:16:46.272Z,0.00
2018-10-19T04:17:46.246Z,0.00
2018-10-19T04:18:46.211Z,0.00
2018-10-19T04:19:46.180Z,0.00
2018-10-19T04:20:46.151Z,0.00
2018-10-19T04:21:46.124Z,0.00
2018-10-19T04:22:46.296Z,0.00
2018-10-19T04:23:46.064Z,0.00
2018-10-19T04:24:46.034Z,0.00
2018-10-19T04:25:46.005Z,0.00
2018-10-19T04:26:45.973Z,0.00
2018-10-19T04:27:46.191Z,0.00
2018-10-19T04:28:45.915Z,0.00
2018-10-19T04:29:45.887Z,0.00
2018-10-19T04:30:45.861Z,0.00
2018-10-19T04:31:45.826Z,0.00
2018-10-19T04:32:45.798Z,0.00
2018-10-19T04:33:45.770Z,0.00
2018-10-19T04:34:45.742Z,0.00
2018-10-19T04:35:45.706Z,0.00
2018-10-19T04:36:45.679Z,0.00
2018-10-19T04:37:45.654Z,0.00
2018-10-19T04:38:45.619Z,0.00
2018-10-19T04:39:45.592Z,0.00
2018-10-19T04:40:45.566Z,0.00
2018-10-19T04:41:45.686Z,0.00
2018-10-19T04:42:45.502Z,0.00
2018-10-19T04:43:45.477Z,0.00
2018-10-19T04:44:45.441Z,0.00
2018-10-19T04:45:45.412Z,0.00
2018-10-19T04:46:45.388Z,0.00
2018-10-19T04:47:45.428Z,0.00
2018-10-19T04:48:45.324Z,0.00
2018-10-19T04:49:45.298Z,0.00
2018-10-19T04:50:45.269Z,0.00
2018-10-19T04:51:45.242Z,0.00
2018-10-19T04:52:45.211Z,0.00
2018-10-19T04:53:45.265Z,0.00
2018-10-19T04:54:45.151Z,0.00
2018-10-19T04:55:45.117Z,0.00
2018-10-19T04:56:45.092Z,0.00
2018-10-19T04:57:45.059Z,0.00
2018-10-19T04:58:45.030Z,0.00
2018-10-19T04:59:45.009Z,0.00
2018-10-19T05:00:44.973Z,0.00
2018-10-19T05:01:44.944Z,0.00
2018-10-19T05:02:45.062Z,0.00
2018-10-19T05:03:44.885Z,0.00
2018-10-19T05:04:44.965Z,0.00
2018-10-19T05:05:44.863Z,0.00
2018-10-19T05:06:44.867Z,0.00
2018-10-19T05:07:44.770Z,0.00
2018-10-19T05:08:44.766Z,0.00
2018-10-19T05:09:44.709Z,0.00
2018-10-19T05:10:44.680Z,0.00
2018-10-19T05:11:44.649Z,0.00
2018-10-19T05:12:44.641Z,0.00
2018-10-19T05:13:44.592Z,0.00
2018-10-19T05:14:44.563Z,4.00
2018-10-19T05:15:44.535Z,4.00
2018-10-19T05:16:44.504Z,4.00
2018-10-19T05:17:44.474Z,0.00
2018-10-19T05:18:44.444Z,4.00
2018-10-19T05:19:44.414Z,4.00
2018-10-19T05:20:44.385Z,4.00
2018-10-19T05:21:44.357Z,8.00
2018-10-19T05:22:44.328Z,8.00
2018-10-19T05:23:44.301Z,8.00
2018-10-19T05:24:44.392Z,8.00
2018-10-19T05:25:44.238Z,12.00
2018-10-19T05:26:44.208Z,12.00
2018-10-19T05:27:44.178Z,16.00
2018-10-19T05:28:44.150Z,16.00
2018-10-19T05:29:44.129Z,20.00
2018-10-19T05:30:44.097Z,24.00
2018-10-19T05:31:44.076Z,28.00
2018-10-19T05:32:44.098Z,32.00
2018-10-19T05:33:44.003Z,40.00
2018-10-19T05:34:43.974Z,44.00
2018-10-19T05:35:43.948Z,52.00
2018-10-19T05:36:43.916Z,64.00
2018-10-19T05:37:43.888Z,72.00
2018-10-19T05:38:43.909Z,84.00
2018-10-19T05:39:43.830Z,96.00
2018-10-19T05:40:43.801Z,116.00
2018-10-19T05:41:43.770Z,132.00
2018-10-19T05:42:43.739Z,152.00
2018-10-19T05:43:43.825Z,176.00
2018-10-19T05:44:43.680Z,200.00
2018-10-19T05:45:43.651Z,228.00
2018-10-19T05:46:43.622Z,256.00
2018-10-19T05:47:43.591Z,284.00
2018-10-19T05:48:43.573Z,312.00
2018-10-19T05:49:43.739Z,344.00
2018-10-19T05:50:43.507Z,372.00
2018-10-19T05:51:43.477Z,408.00
2018-10-19T05:52:43.450Z,440.00
2018-10-19T05:53:43.418Z,476.00
2018-10-19T05:54:43.389Z,516.00
2018-10-19T05:55:43.359Z,564.00
2018-10-19T05:56:43.329Z,616.00
2018-10-19T05:57:43.303Z,676.00
2018-10-19T05:58:43.273Z,740.00
2018-10-19T05:59:43.261Z,808.00
2018-10-19T06:00:43.213Z,872.00
2018-10-19T06:01:43.186Z,936.00
2018-10-19T06:02:43.214Z,1000.00
2018-10-19T06:03:43.125Z,1060.00
2018-10-19T06:04:43.099Z,1124.00
2018-10-19T06:05:43.066Z,1188.00
2018-10-19T06:06:43.037Z,1240.00
2018-10-19T06:07:43.010Z,1284.00
2018-10-19T06:08:42.980Z,1328.00
2018-10-19T06:09:42.952Z,1388.00
2018-10-19T06:10:42.923Z,1468.00
2018-10-19T06:11:42.892Z,1552.00
2018-10-19T06:12:42.864Z,1632.00
2018-10-19T06:13:42.930Z,1732.00
2018-10-19T06:14:42.805Z,1832.00
2018-10-19T06:15:42.779Z,1916.00
2018-10-19T06:16:42.745Z,2012.00
2018-10-19T06:17:42.717Z,2128.00
2018-10-19T06:18:42.692Z,2216.00
2018-10-19T06:19:42.657Z,2252.00
2018-10-19T06:20:42.629Z,2256.00
2018-10-19T06:21:42.602Z,2328.00
2018-10-19T06:22:42.576Z,2488.00
2018-10-19T06:23:42.543Z,2652.00
2018-10-19T06:24:42.515Z,2764.00
2018-10-19T06:25:42.516Z,2840.00
2018-10-19T06:26:42.455Z,2916.00
2018-10-19T06:27:42.427Z,2996.00
2018-10-19T06:28:42.599Z,3112.00
2018-10-19T06:29:42.371Z,3268.00
2018-10-19T06:30:42.345Z,3428.00
2018-10-19T06:31:42.315Z,3556.00
2018-10-19T06:32:42.284Z,3652.00
2018-10-19T06:33:42.312Z,3712.00
2018-10-19T06:34:42.224Z,3764.00
2018-10-19T06:35:42.201Z,3872.00
2018-10-19T06:36:42.165Z,4080.00
2018-10-19T06:37:42.139Z,4388.00
2018-10-19T06:38:42.113Z,4684.00
2018-10-19T06:39:42.082Z,4808.00
2018-10-19T06:40:42.093Z,4800.00
2018-10-19T06:41:42.223Z,4860.00
2018-10-19T06:42:41.996Z,5044.00
2018-10-19T06:43:41.963Z,5288.00
2018-10-19T06:44:41.934Z,5500.00
2018-10-19T06:45:41.907Z,5628.00
2018-10-19T06:46:41.935Z,5648.00
2018-10-19T06:47:41.852Z,5600.00
2018-10-19T06:48:41.827Z,5524.00
2018-10-19T06:49:41.793Z,5496.00
2018-10-19T06:50:41.764Z,5548.00
2018-10-19T06:51:41.735Z,5700.00
2018-10-19T06:52:41.705Z,5908.00
2018-10-19T06:53:41.675Z,6120.00
2018-10-19T06:54:41.645Z,6324.00
2018-10-19T06:55:41.619Z,6512.00
2018-10-19T06:56:41.596Z,6560.00
2018-10-19T06:57:41.590Z,6540.00
2018-10-19T06:58:41.534Z,6552.00
2018-10-19T06:59:41.507Z,6604.00
2018-10-19T07:00:41.475Z,6664.00
2018-10-19T07:01:41.445Z,6776.00
2018-10-19T07:02:41.418Z,6940.00
2018-10-19T07:03:41.389Z,7112.00
2018-10-19T07:04:41.360Z,7240.00
2018-10-19T07:05:41.422Z,7336.00
2018-10-19T07:06:41.302Z,7464.00
2018-10-19T07:07:41.272Z,7576.00
2018-10-19T07:08:41.246Z,7640.00
2018-10-19T07:09:41.219Z,7692.00
2018-10-19T07:10:41.194Z,7772.00
2018-10-19T07:11:41.161Z,8040.00
2018-10-19T07:12:41.134Z,8316.00
2018-10-19T07:13:41.101Z,8628.00
2018-10-19T07:14:41.077Z,8876.00
2018-10-19T07:15:41.049Z,8972.00
2018-10-19T07:16:41.028Z,9024.00
2018-10-19T07:17:40.998Z,9172.00
2018-10-19T07:18:40.961Z,9844.00
2018-10-19T07:19:41.135Z,10672.00
2018-10-19T07:20:40.904Z,10900.00
2018-10-19T07:21:40.937Z,11312.00
2018-10-19T07:22:40.847Z,11636.00
2018-10-19T07:23:41.019Z,12380.00
2018-10-19T07:24:40.998Z,12444.00
2018-10-19T07:25:40.758Z,12228.00
2018-10-19T07:26:40.730Z,12052.00
2018-10-19T07:27:40.904Z,12580.00
2018-10-19T07:28:40.698Z,15060.00
2018-10-19T07:29:40.801Z,12344.00
2018-10-19T07:30:40.635Z,12480.00
2018-10-19T07:31:40.794Z,12436.00
2018-10-19T07:32:40.767Z,12252.00
2018-10-19T07:33:40.737Z,12148.00
2018-10-19T07:34:40.505Z,12392.00
2018-10-19T07:35:40.479Z,13132.00
2018-10-19T07:36:40.650Z,13332.00
2018-10-19T07:37:40.622Z,13576.00
2018-10-19T07:38:40.594Z,13388.00
2018-10-19T07:39:40.371Z,13484.00
2018-10-19T07:40:40.541Z,13924.00
2018-10-19T07:41:40.516Z,14564.00
2018-10-19T07:42:40.286Z,15476.00
2018-10-19T07:43:40.254Z,15252.00
2018-10-19T07:44:40.428Z,14208.00
2018-10-19T07:45:40.405Z,13468.00
2018-10-19T07:46:40.372Z,12948.00
2018-10-19T07:47:40.164Z,12736.00
2018-10-19T07:48:40.120Z,12724.00
2018-10-19T07:49:40.088Z,12920.00
2018-10-19T07:50:40.269Z,13340.00
2018-10-19T07:51:40.032Z,13872.00
2018-10-19T07:52:41.016Z,14416.00
2018-10-19T07:53:39.977Z,13992.00
2018-10-19T07:54:39.951Z,13536.00
2018-10-19T07:55:39.920Z,13280.00
2018-10-19T07:56:39.895Z,13224.00
2018-10-19T07:57:39.864Z,13380.00
2018-10-19T07:58:39.842Z,13716.00
2018-10-19T07:59:40.012Z,14076.00
2018-10-19T08:00:39.785Z,14400.00
2018-10-19T08:01:39.757Z,14700.00
2018-10-19T08:02:39.729Z,14888.00
2018-10-19T08:03:39.704Z,15028.00
2018-10-19T08:04:39.674Z,15388.00
2018-10-19T08:05:39.848Z,19232.00
2018-10-19T08:06:39.624Z,16800.00
2018-10-19T08:07:39.792Z,17408.00
2018-10-19T08:08:39.564Z,18272.00
2018-10-19T08:09:39.739Z,27520.00
2018-10-19T08:10:39.511Z,31136.00
2018-10-19T08:11:39.755Z,30976.00
2018-10-19T08:12:39.455Z,21856.00
2018-10-19T08:13:39.633Z,19136.00
2018-10-19T08:14:39.436Z,19520.00
2018-10-19T08:15:39.578Z,19552.00
2018-10-19T08:16:39.349Z,19008.00
2018-10-19T08:17:39.322Z,18368.00
2018-10-19T08:18:39.300Z,17952.00
2018-10-19T08:19:39.267Z,18080.00
2018-10-19T08:20:39.246Z,18944.00
2018-10-19T08:21:39.217Z,20672.00
2018-10-19T08:22:39.192Z,18400.00
2018-10-19T08:23:39.168Z,18816.00
2018-10-19T08:24:39.138Z,19392.00
2018-10-19T08:25:39.119Z,19968.00
2018-10-19T08:26:39.087Z,20416.00
2018-10-19T08:27:39.060Z,20704.00
2018-10-19T08:28:39.043Z,20800.00
2018-10-19T08:29:39.003Z,20704.00
2018-10-19T08:30:38.978Z,20896.00
2018-10-19T08:31:38.951Z,33984.00
2018-10-19T08:32:38.925Z,27328.00
2018-10-19T08:33:38.902Z,29472.00
2018-10-19T08:34:38.879Z,23616.00
2018-10-19T08:35:38.847Z,22944.00
2018-10-19T08:36:38.823Z,23264.00
2018-10-19T08:37:38.828Z,23744.00
2018-10-19T08:38:38.772Z,24288.00
2018-10-19T08:39:38.747Z,25248.00
2018-10-19T08:40:38.919Z,25056.00
2018-10-19T08:41:38.904Z,35296.00
2018-10-19T08:42:38.870Z,46528.00
2018-10-19T08:43:38.642Z,40032.00
2018-10-19T08:44:38.820Z,27424.00
2018-10-19T08:45:38.590Z,24480.00
2018-10-19T08:46:38.765Z,25408.00
2018-10-19T08:47:39.834Z,25280.00
2018-10-19T08:48:38.513Z,26592.00
2018-10-19T08:49:38.488Z,27424.00
2018-10-19T08:50:38.464Z,28864.00
2018-10-19T08:51:39.248Z,32800.00
2018-10-19T08:52:38.413Z,30560.00
2018-10-19T08:53:38.637Z,33696.00
2018-10-19T08:54:38.374Z,29760.00
2018-10-19T08:55:38.387Z,34016.00
2018-10-19T08:56:38.314Z,31648.00
2018-10-19T08:57:38.547Z,35200.00
2018-10-19T08:58:38.465Z,32288.00
2018-10-19T08:59:38.440Z,33600.00
2018-10-19T09:00:38.415Z,33568.00
2018-10-19T09:01:38.191Z,40256.00
2018-10-19T09:02:38.375Z,52576.00
2018-10-19T09:03:38.386Z,48800.00
2018-10-19T09:04:38.118Z,53056.00
2018-10-19T09:05:38.297Z,41024.00
2018-10-19T09:06:38.270Z,36896.00
2018-10-19T09:07:38.093Z,30784.00
2018-10-19T09:08:38.020Z,30880.00
2018-10-19T09:09:37.999Z,30112.00
2018-10-19T09:10:37.978Z,29408.00
2018-10-19T09:11:37.980Z,29600.00
2018-10-19T09:12:38.308Z,33600.00
2018-10-19T09:13:37.906Z,37696.00
2018-10-19T09:14:37.893Z,60192.00
2018-10-19T09:15:38.062Z,56736.00
2018-10-19T09:16:38.037Z,54496.00
2018-10-19T09:17:37.811Z,35584.00
2018-10-19T09:18:37.843Z,33472.00
2018-10-19T09:19:37.765Z,35616.00
2018-10-19T09:20:37.743Z,39648.00
2018-10-19T09:21:37.724Z,32896.00
2018-10-19T09:22:37.709Z,33312.00
2018-10-19T09:23:37.678Z,33696.00
2018-10-19T09:24:37.655Z,34720.00
2018-10-19T09:25:37.630Z,36256.00
2018-10-19T09:26:37.608Z,40992.00
2018-10-19T09:27:37.598Z,69376.00
2018-10-19T09:28:37.765Z,68768.00
2018-10-19T09:29:37.807Z,67808.00
2018-10-19T09:30:37.518Z,65472.00
2018-10-19T09:31:37.496Z,50752.00
2018-10-19T09:32:37.676Z,44480.00
2018-10-19T09:33:37.454Z,35872.00
2018-10-19T09:34:37.432Z,28928.00
2018-10-19T09:35:37.702Z,27104.00
2018-10-19T09:36:37.694Z,26080.00
2018-10-19T09:37:37.567Z,25600.00
2018-10-19T09:38:37.548Z,25312.00
2018-10-19T09:39:37.522Z,24448.00
2018-10-19T09:40:37.501Z,24608.00
2018-10-19T09:41:37.485Z,26752.00
2018-10-19T09:42:37.458Z,28544.00
2018-10-19T09:43:37.434Z,61280.00
2018-10-19T09:44:37.431Z,56640.00
2018-10-19T09:45:37.392Z,49728.00
2018-10-19T09:46:37.370Z,60160.00
2018-10-19T09:47:37.445Z,62752.00
2018-10-19T09:48:37.119Z,60576.00
2018-10-19T09:49:37.298Z,50144.00
2018-10-19T09:50:37.073Z,25184.00
2018-10-19T09:51:37.054Z,26944.00
2018-10-19T09:52:37.029Z,40736.00
2018-10-19T09:53:37.011Z,61760.00
2018-10-19T09:54:36.992Z,54080.00
2018-10-19T09:55:36.964Z,58656.00
2018-10-19T09:56:37.954Z,61664.00
2018-10-19T09:57:37.120Z,61664.00
2018-10-19T09:58:39.720Z,61088.00
2018-10-19T09:59:37.074Z,61120.00
2018-10-19T10:00:37.053Z,48384.00
2018-10-19T10:01:37.041Z,27680.00
2018-10-19T10:02:37.012Z,27424.00
2018-10-19T10:03:36.792Z,46848.00
2018-10-19T10:04:36.766Z,28416.00
2018-10-19T10:05:36.750Z,18656.00
2018-10-19T10:06:36.723Z,25792.00
2018-10-19T10:07:36.898Z,22240.00
2018-10-19T10:08:36.684Z,17224.00
2018-10-19T10:09:36.653Z,16516.00
2018-10-19T10:10:36.629Z,16128.00
2018-10-19T10:11:36.611Z,15908.00
2018-10-19T10:12:36.786Z,15500.00
2018-10-19T10:13:36.564Z,15356.00
2018-10-19T10:14:36.788Z,14824.00
2018-10-19T10:15:36.650Z,14628.00
2018-10-19T10:16:36.700Z,14244.00
2018-10-19T10:17:36.682Z,13976.00
2018-10-19T10:18:36.659Z,13664.00
2018-10-19T10:21:43.088Z,11904.00
2018-10-19T10:22:42.853Z,11860.00
2018-10-19T10:23:42.839Z,11980.00
2018-10-19T10:24:42.925Z,12032.00
2018-10-19T10:25:42.783Z,12244.00
2018-10-19T10:26:42.761Z,12648.00
2018-10-19T10:27:42.734Z,13312.00
2018-10-19T10:28:42.707Z,14716.00
2018-10-19T10:29:42.691Z,15908.00
2018-10-19T10:30:42.657Z,16800.00
2018-10-19T10:31:42.640Z,17072.00
2018-10-19T10:32:42.614Z,17284.00
2018-10-19T10:33:42.584Z,17476.00
2018-10-19T10:34:42.558Z,17956.00
2018-10-19T10:35:42.535Z,19040.00
2018-10-19T10:36:42.513Z,19776.00
2018-10-19T10:37:42.485Z,19424.00
2018-10-19T10:38:42.519Z,22464.00
2018-10-19T10:39:42.439Z,18720.00
2018-10-19T10:40:42.407Z,18052.00
2018-10-19T10:41:42.382Z,18108.00
2018-10-19T10:42:42.356Z,26496.00
2018-10-19T10:43:42.331Z,35456.00
2018-10-19T10:44:42.308Z,56544.00
2018-10-19T10:45:42.284Z,58624.00
2018-10-19T10:46:42.258Z,60640.00
2018-10-19T10:47:42.232Z,39776.00
2018-10-19T10:48:42.212Z,56576.00
2018-10-19T10:49:42.385Z,53856.00
2018-10-19T10:56:19.573Z,47328.00
2018-10-19T10:57:19.345Z,59520.00
2018-10-19T10:58:19.328Z,57536.00
2018-10-19T11:02:50.260Z,59616.00
2018-10-19T11:07:23.755Z,59968.00
2018-10-19T11:08:20.976Z,62816.00
2018-10-19T11:09:20.951Z,60224.00
2018-10-19T11:10:20.947Z,59328.00
2018-10-19T11:11:20.912Z,61152.00
2018-10-19T11:12:20.888Z,59072.00
2018-10-19T11:13:21.072Z,57728.00
2018-10-19T11:14:20.844Z,57760.00
2018-10-19T11:15:20.825Z,57792.00
2018-10-19T11:16:20.803Z,59840.00
2018-10-19T11:17:20.786Z,57632.00
2018-10-19T11:18:20.564Z,55648.00
2018-10-19T11:19:20.542Z,60864.00
2018-10-19T11:20:20.521Z,63904.00
2018-10-19T11:21:20.706Z,62208.00
2018-10-19T11:22:20.482Z,62560.00
2018-10-19T11:23:20.664Z,64768.00
2018-10-19T11:24:20.649Z,64064.00
2018-10-19T11:25:20.640Z,64000.00
2018-10-19T11:27:03.571Z,63424.00
2018-10-19T11:28:02.747Z,58944.00
2018-10-19T11:29:02.724Z,68096.00
2018-10-19T11:30:02.704Z,70560.00
2018-10-19T11:31:02.769Z,72256.00
2018-10-19T11:32:02.664Z,71360.00
2018-10-19T11:33:44.799Z,69088.00
2018-10-19T11:34:48.211Z,73440.00
2018-10-19T11:36:26.970Z,71008.00
2018-10-19T11:37:26.948Z,70112.00
2018-10-19T11:38:26.881Z,73984.00
2018-10-19T11:39:26.875Z,69344.00
2018-10-19T11:40:26.846Z,69664.00
2018-10-19T11:42:08.981Z,69120.00
2018-10-19T11:43:11.670Z,65120.00
2018-10-19T11:44:08.948Z,67296.00
2018-10-19T11:45:08.929Z,66624.00
2018-10-19T11:46:08.985Z,28704.00
2018-10-19T11:47:08.895Z,56704.00
2018-10-19T11:48:08.701Z,32192.00
2018-10-19T11:49:08.677Z,28896.00
2018-10-19T11:50:08.633Z,21824.00
2018-10-19T11:51:08.623Z,20736.00
2018-10-19T11:52:10.168Z,20224.00
2018-10-19T11:53:08.781Z,19488.00
2018-10-19T11:54:08.762Z,18880.00
2018-10-19T11:55:08.652Z,18688.00
2018-10-19T11:56:08.722Z,18304.00
2018-10-19T11:57:08.786Z,17492.00
2018-10-19T11:58:08.769Z,17260.00
2018-10-19T11:59:08.462Z,17580.00
2018-10-19T12:00:08.647Z,20448.00
2018-10-19T12:01:50.771Z,24320.00
2018-10-19T12:03:32.936Z,34208.00
2018-10-19T12:04:32.678Z,36960.00
2018-10-19T12:05:32.667Z,27136.00
2018-10-19T12:06:32.839Z,17976.00
2018-10-19T12:07:32.817Z,29024.00
2018-10-19T12:08:32.597Z,16688.00
2018-10-19T12:09:32.773Z,16140.00
2018-10-19T12:10:33.216Z,17664.00
2018-10-19T12:11:32.731Z,36224.00
2018-10-19T12:12:32.507Z,41216.00
2018-10-19T12:14:14.838Z,60224.00
2018-10-19T12:16:17.530Z,57824.00
2018-10-19T12:17:14.765Z,57344.00
2018-10-19T12:19:56.872Z,22464.00
2018-10-19T12:23:38.958Z,61120.00
2018-10-19T12:24:38.756Z,61760.00
2018-10-19T12:25:38.914Z,58912.00
2018-10-19T12:26:38.909Z,61504.00
2018-10-19T12:27:38.870Z,62048.00
2018-10-19T12:28:38.647Z,61184.00
2018-10-19T12:29:38.826Z,60224.00
2018-10-19T12:30:38.603Z,60896.00
2018-10-19T12:31:38.578Z,29920.00
2018-10-19T12:32:38.561Z,30240.00
2018-10-19T12:33:38.536Z,25632.00
2018-10-19T12:34:38.516Z,22368.00
2018-10-19T12:35:38.579Z,15524.00
2018-10-19T12:36:38.471Z,14664.00
2018-10-19T12:37:38.461Z,13608.00
2018-10-19T12:38:38.432Z,13184.00
2018-10-19T12:41:02.932Z,13872.00
2018-10-19T12:42:02.687Z,14132.00
2018-10-19T12:43:02.914Z,14052.00
2018-10-19T12:44:02.847Z,13580.00
2018-10-19T12:45:05.486Z,13772.00
2018-10-19T12:46:02.799Z,13728.00
2018-10-19T12:50:33.534Z,16092.00
2018-10-19T12:51:33.508Z,52704.00
2018-10-19T12:52:33.279Z,35456.00
2018-10-19T12:53:36.081Z,15884.00
2018-10-19T12:55:15.666Z,14192.00
2018-10-19T12:56:15.357Z,13904.00
2018-10-19T12:57:16.301Z,13696.00
2018-10-19T12:58:15.328Z,13796.00